Pagrindinis puslapis
METAR-TAF:

METAR-TAF

Oro uostai :

Belo Horizontė, Minas Žeraisas, Brazilija

platuma: 19-51S, ilguma: 043-57W, Aukštis: 785 m

Dabartinis oras

Ataskaita buvo paskelbta 35 minutes, ne 23:00 UTC
Ramus vėjas
Temperatūra 22°C
Drėgmė 88%
Slėgis 1019 hPa
Matomumas 10 km arba daugiau
Išsisklaidę debesys ne aukštis 1000 ft
Su prošvaistėmis ne aukštis 2000 ft
Apsiniaukę ne aukštis 9000 ft
lietus

METAR: SBBH 282300Z 00000KT 9999 -RA SCT010 BKN020 OVC090 22/20 Q1019

Laikas: 20:35 (23:35 UTC)


TAF: trūkstamas

Orai ataskaitas ir orų prognozės (METAR, TAF).

turimą stotys yra geltonos ir raudonos taškus žemėlapyje.

Perkelti pele per norėdami pamatyti stoties vardą.

Tada spustelėkite, norėdami matyti oro stebėjimo ir prognozės.

Norėdami pakeisti žemėlapį: spustelėkite ant žalios mygtukų su juodo kryžiaus žemyn,; žalią mygtuką su brūkšneliu, jei norite nutolinti; arba žalių rodyklių gretimoms žemėlapius.


METAR-TAF: